Time;durP1;ratioP1;P1;durP2;ratioP2;P2;SDS_P1;SDS_P2;PMS_P1;PMS_P2;Temp;Humidity;BMP_temperature;BMP_pressure;BME280_temperature;BME280_humidity;BME280_pressure;Samples;Min_cycle;Max_cycle;Signal;HPM_P1;HPM_P2
2023/04/15 00:01:33;;;;;;;10.32;6.70;;;6.20;99.90;;;6.84;100.00;100061.25;5060273;28;20057;-78
2023/04/15 00:03:59;;;;;;;11.23;6.30;;;6.20;99.90;;;6.80;100.00;100060.84;5065101;28;20040;-78
2023/04/15 00:06:25;;;;;;;10.98;6.25;;;6.10;99.90;;;6.67;100.00;100056.25;5064241;28;20044;-77
2023/04/15 00:08:50;;;;;;;9.02;5.70;;;6.10;99.90;;;6.60;100.00;100071.63;5063085;28;20114;-78
2023/04/15 00:11:17;;;;;;;10.05;5.90;;;6.10;99.90;;;6.71;100.00;100054.78;5062523;28;20079;-77
2023/04/15 00:13:43;;;;;;;9.40;5.60;;;6.10;99.90;;;6.73;100.00;100060.84;5063790;28;20048;-78
2023/04/15 00:16:10;;;;;;;10.02;6.78;;;6.10;99.90;;;6.65;100.00;100041.22;5027243;28;20040;-77
2023/04/15 00:18:36;;;;;;;11.20;6.43;;;6.10;99.90;;;6.71;100.00;100052.06;5061450;28;20039;-77
2023/04/15 00:21:04;;;;;;;10.95;6.28;;;6.10;99.90;;;6.65;100.00;100052.91;5037580;28;20503;-77
2023/04/15 00:23:30;;;;;;;12.13;5.77;;;6.10;99.90;;;6.60;100.00;100033.69;5068802;28;20075;-77
2023/04/15 00:25:56;;;;;;;8.73;5.70;;;6.10;99.90;;;6.79;100.00;100042.06;5066567;28;20354;-77
2023/04/15 00:28:21;;;;;;;8.48;5.78;;;6.10;99.90;;;6.78;100.00;100037.69;5062207;28;20476;-77
2023/04/15 00:30:47;;;;;;;11.43;5.88;;;6.10;99.90;;;6.81;100.00;100042.69;5060941;28;20040;-77
2023/04/15 00:33:15;;;;;;;9.70;5.75;;;6.20;99.90;;;6.71;100.00;100035.81;5068535;28;20035;-77
2023/04/15 00:35:41;;;;;;;9.48;6.30;;;6.20;99.90;;;6.84;100.00;100034.16;5055972;28;20033;-77
2023/04/15 00:38:07;;;;;;;9.45;5.70;;;6.30;99.90;;;6.85;100.00;100041.22;5066393;28;20044;-78
2023/04/15 00:40:34;;;;;;;14.10;6.25;;;6.30;99.90;;;6.69;100.00;100027.06;5067373;28;20507;-77
2023/04/15 00:43:00;;;;;;;9.25;5.80;;;6.30;99.90;;;6.92;100.00;100039.38;5061325;28;20032;-77
2023/04/15 00:45:27;;;;;;;10.38;6.20;;;6.40;99.90;;;6.97;100.00;100028.75;5055254;28;20029;-77
2023/04/15 00:47:53;;;;;;;9.15;5.93;;;6.40;99.90;;;6.92;100.00;100028.53;5056482;28;20029;-77
2023/04/15 00:50:19;;;;;;;9.70;6.30;;;6.40;99.90;;;7.04;100.00;100029.56;5061872;28;20044;-77
2023/04/15 00:52:45;;;;;;;9.57;5.72;;;6.40;99.90;;;6.64;100.00;100034.13;5065244;28;20029;-77
2023/04/15 00:55:10;;;;;;;9.02;6.25;;;6.50;99.90;;;6.69;100.00;100042.47;5067128;28;20039;-78
2023/04/15 00:57:38;;;;;;;10.65;6.22;;;6.50;99.90;;;6.69;100.00;100037.91;5039499;28;20028;-77
2023/04/15 01:00:06;;;;;;;13.48;7.05;;;6.50;99.90;;;6.67;100.00;100021.00;5064959;28;20544;-77
2023/04/15 01:02:33;;;;;;;9.43;6.07;;;6.60;99.90;;;6.78;100.00;100013.28;5057467;28;20033;-77
2023/04/15 01:05:03;;;;;;;12.30;7.13;;;6.70;99.90;;;6.89;100.00;100031.63;5058678;28;20112;-77
2023/04/15 01:07:29;;;;;;;11.80;7.40;;;6.70;99.90;;;6.79;100.00;100026.66;5063716;28;20032;-77
2023/04/15 01:09:55;;;;;;;10.85;6.60;;;6.70;99.90;;;6.83;100.00;100025.19;5063398;28;20045;-77
2023/04/15 01:12:25;;;;;;;11.57;7.00;;;6.70;99.90;;;6.83;100.00;100027.91;5062736;28;20033;-77
2023/04/15 01:14:51;;;;;;;11.35;7.28;;;6.70;99.90;;;6.86;100.00;100027.47;5055483;28;20029;-77
2023/04/15 01:17:17;;;;;;;13.07;7.10;;;6.70;99.90;;;6.81;100.00;100015.59;5047904;28;20531;-77
2023/04/15 01:19:43;;;;;;;11.15;6.18;;;6.70;99.90;;;6.78;100.00;100018.72;5051866;28;20393;-78
2023/04/15 01:22:09;;;;;;;13.15;7.25;;;6.70;99.90;;;6.71;100.00;100014.13;5036700;28;20048;-78
2023/04/15 01:24:37;;;;;;;;;;;6.70;99.90;;;6.84;100.00;100024.16;5062589;28;20041;-78
2023/04/15 01:27:04;;;;;;;12.57;8.02;;;6.70;99.90;;;6.81;100.00;100023.72;5048606;28;19932;-77
2023/04/15 01:29:33;;;;;;;14.93;8.03;;;6.70;99.90;;;6.85;100.00;100023.09;5066672;28;20028;-78
2023/04/15 01:31:59;;;;;;;14.43;7.95;;;6.60;99.90;;;6.53;100.00;99990.34;5061827;28;20309;-78
2023/04/15 01:34:26;;;;;;;15.88;7.97;;;6.70;99.90;;;6.73;100.00;100019.31;5065499;28;20036;-78
2023/04/15 01:36:53;;;;;;;14.10;7.93;;;6.70;99.90;;;6.78;100.00;100016.00;5042488;28;20063;-78
2023/04/15 01:39:20;;;;;;;12.88;7.85;;;6.70;99.90;;;6.73;100.00;99992.22;5059149;28;20085;-77
2023/04/15 01:41:46;;;;;;;16.63;9.05;;;6.70;99.90;;;6.81;100.00;100018.28;5060984;28;20039;-77
2023/04/15 01:44:12;;;;;;;14.98;9.32;;;6.70;99.90;;;6.92;100.00;100017.69;5059528;28;20037;-77
2023/04/15 01:46:38;;;;;;;14.65;9.10;;;6.70;99.90;;;6.81;100.00;100010.16;5065809;28;20097;-79
2023/04/15 01:49:05;;;;;;;16.63;9.18;;;6.70;99.90;;;6.85;100.00;100019.53;5063093;28;20032;-80
2023/04/15 01:51:31;;;;;;;19.85;9.65;;;6.70;99.90;;;6.92;100.00;100014.97;5063127;28;20059;-77
2023/04/15 01:53:57;;;;;;;16.58;9.88;;;6.70;99.90;;;6.88;100.00;100019.97;5065359;28;20483;-77
2023/04/15 01:56:23;;;;;;;15.68;9.63;;;6.70;99.90;;;6.87;100.00;100009.31;5064810;28;20472;-77
2023/04/15 01:58:49;;;;;;;17.50;10.05;;;6.80;99.90;;;6.95;100.00;100002.88;5067622;28;20036;-77
2023/04/15 02:01:18;;;;;;;15.93;9.38;;;6.80;99.90;;;6.94;100.00;100003.91;5025346;28;20033;-77
2023/04/15 02:03:46;;;;;;;20.08;11.13;;;6.80;99.90;;;6.83;100.00;99994.50;5054014;28;20500;-77
2023/04/15 02:06:14;;;;;;;18.85;11.05;;;6.80;99.90;;;6.92;100.00;99993.28;5057721;28;20103;-76
2023/04/15 02:08:39;;;;;;;21.92;11.57;;;6.80;99.90;;;6.78;100.00;99987.03;5041045;28;20127;-76
2023/04/15 02:11:07;;;;;;;17.33;9.18;;;6.80;99.90;;;6.81;100.00;99991.19;5049001;28;20032;-77
2023/04/15 02:13:32;;;;;;;19.13;11.35;;;6.80;99.90;;;6.95;100.00;99998.28;5044501;28;20025;-76
2023/04/15 02:15:58;;;;;;;18.80;11.32;;;6.80;99.90;;;6.93;100.00;100000.38;5049248;28;20040;-78
2023/04/15 02:18:24;;;;;;;16.23;8.93;;;6.90;99.90;;;6.87;100.00;99991.19;5052986;28;20037;-77
2023/04/15 02:20:51;;;;;;;20.27;11.38;;;6.80;99.90;;;6.76;100.00;99998.06;5010970;28;20044;-76
2023/04/15 02:23:17;;;;;;;17.97;10.67;;;6.80;99.90;;;6.93;100.00;99986.81;5061400;28;20036;-76
2023/04/15 02:25:43;;;;;;;20.02;10.57;;;6.80;99.90;;;6.93;100.00;99984.09;5075429;28;20289;-76
2023/04/15 02:28:08;;;;;;;20.85;11.07;;;6.80;99.90;;;6.99;100.00;99994.09;5043763;28;20033;-76
2023/04/15 02:30:34;;;;;;;19.85;11.30;;;6.80;99.90;;;6.89;100.00;99991.81;5078350;28;20096;-76
2023/04/15 02:33:02;;;;;;;19.95;11.23;;;6.80;99.90;;;6.88;100.00;99975.75;5044986;28;20029;-76
2023/04/15 02:35:28;;;;;;;18.77;11.30;;;6.80;99.90;;;6.97;100.00;99995.34;5081201;28;20375;-76
2023/04/15 02:37:54;;;;;;;19.52;11.07;;;6.80;99.90;;;7.00;100.00;99984.94;5084261;28;20029;-76
2023/04/15 02:40:20;;;;;;;21.58;11.40;;;6.80;99.90;;;6.92;100.00;99968.88;5086145;28;20024;-77
2023/04/15 02:42:45;;;;;;;21.33;11.48;;;6.90;99.90;;;7.05;100.00;99998.69;5081875;28;20489;-76
2023/04/15 02:45:14;;;;;;;22.15;12.88;;;6.80;99.90;;;7.02;100.00;99996.41;5067216;28;20480;-76
2023/04/15 02:47:42;;;;;;;20.40;11.35;;;6.80;99.90;;;7.11;100.00;99990.75;5058726;28;20037;-76
2023/04/15 02:50:11;;;;;;;20.63;11.33;;;6.80;99.90;;;6.97;100.00;100004.34;5057447;28;20036;-76
2023/04/15 02:52:42;;;;;;;19.80;11.40;;;6.90;99.90;;;7.07;100.00;99995.78;5084286;28;20028;-76
2023/04/15 02:55:08;;;;;;;21.13;11.93;;;6.80;99.90;;;6.96;100.00;99996.41;5085282;28;20028;-77
2023/04/15 02:57:39;;;;;;;18.42;10.25;;;6.90;99.90;;;6.96;100.00;99999.09;5062953;28;20492;-77
2023/04/15 03:00:10;;;;;;;19.85;10.75;;;6.90;99.90;;;6.90;100.00;100001.63;5038003;28;20040;-78
2023/04/15 03:02:39;;;;;;;21.75;12.23;;;6.90;99.90;;;6.88;100.00;100009.13;5065000;28;20064;-76
2023/04/15 03:05:05;;;;;;;22.10;11.98;;;6.80;99.90;;;6.76;100.00;99992.63;5058071;28;20036;-77
2023/04/15 03:07:31;;;;;;;22.25;11.30;;;6.80;99.90;;;6.95;100.00;100008.28;5045574;28;20394;-75
2023/04/15 03:09:58;;;;;;;21.27;12.50;;;6.80;99.90;;;6.97;100.00;100007.03;5057674;28;20036;-76
2023/04/15 03:12:25;;;;;;;24.67;12.30;;;6.80;99.90;;;7.02;100.00;99988.25;5061933;28;20115;-76
2023/04/15 03:14:55;;;;;;;21.17;11.73;;;6.80;99.90;;;7.02;100.00;100011.81;5066386;28;20040;-77
2023/04/15 03:17:26;;;;;;;22.25;12.73;;;6.80;99.90;;;6.88;100.00;100011.00;5059948;28;20058;-78
2023/04/15 03:19:52;;;;;;;22.50;12.48;;;6.80;99.90;;;6.89;100.00;100009.94;5066685;28;20042;-77
2023/04/15 03:22:18;;;;;;;26.30;14.27;;;6.90;99.90;;;6.75;100.00;99999.09;5061303;28;20044;-77
2023/04/15 03:24:44;;;;;;;26.45;13.45;;;6.80;99.90;;;6.83;100.00;99997.22;5086961;28;20039;-76
2023/04/15 03:27:10;;;;;;;24.90;14.02;;;6.80;99.90;;;6.85;100.00;100004.13;5083039;28;20032;-76
2023/04/15 03:29:36;;;;;;;24.92;14.05;;;6.80;99.90;;;6.70;100.00;100001.63;5081308;28;20082;-76
2023/04/15 03:32:02;;;;;;;32.92;16.23;;;6.80;99.90;;;6.80;100.00;99989.50;5071189;28;20055;-75
2023/04/15 03:34:31;;;;;;;27.60;15.70;;;6.80;99.90;;;6.80;100.00;100001.19;5086397;28;20044;-76
2023/04/15 03:36:57;;;;;;;26.30;14.18;;;6.70;99.90;;;6.81;100.00;99997.44;5088116;28;20039;-76
2023/04/15 03:39:23;;;;;;;26.33;15.00;;;6.70;99.90;;;6.73;100.00;99995.78;5088501;28;20040;-76
2023/04/15 03:41:48;;;;;;;28.88;16.27;;;6.70;99.90;;;6.53;100.00;100000.31;5087059;28;20032;-76
2023/04/15 03:44:14;;;;;;;25.60;13.27;;;6.70;99.90;;;6.62;100.00;99997.22;5084586;28;20028;-77
2023/04/15 03:46:40;;;;;;;31.42;16.10;;;6.60;99.90;;;6.59;100.00;100000.34;5082946;28;20047;-76
2023/04/15 03:49:06;;;;;;;23.92;13.45;;;6.60;99.90;;;6.46;100.00;99995.75;5075902;28;20090;-76
2023/04/15 03:51:32;;;;;;;30.35;16.83;;;6.60;99.90;;;6.73;100.00;99992.22;5080019;28;20128;-76
2023/04/15 03:53:58;;;;;;;32.75;18.00;;;6.60;99.90;;;6.50;100.00;99992.63;5082506;28;20039;-77
2023/04/15 03:56:24;;;;;;;30.40;16.77;;;6.60;99.90;;;6.60;100.00;99985.75;5081485;28;20036;-77
2023/04/15 03:58:49;;;;;;;37.30;19.58;;;6.60;99.90;;;6.62;100.00;99988.22;5087878;28;20327;-76
2023/04/15 04:01:15;;;;;;;31.73;17.15;;;6.60;99.90;;;6.67;100.00;100002.03;5080575;28;20036;-77
2023/04/15 04:03:41;;;;;;;27.90;14.25;;;6.60;99.90;;;6.59;100.00;99996.78;5044687;28;20406;-77
2023/04/15 04:06:07;;;;;;;33.95;18.13;;;6.60;99.90;;;6.57;100.00;99990.75;5083915;28;22163;-77
2023/04/15 04:08:33;;;;;;;31.58;16.48;;;6.60;99.90;;;6.62;100.00;100001.78;5083079;28;20137;-78
2023/04/15 04:10:59;;;;;;;38.40;20.38;;;6.60;99.90;;;6.51;100.00;99994.28;5058802;28;20086;-77
2023/04/15 04:13:24;;;;;;;39.30;21.13;;;6.50;99.90;;;6.46;100.00;99987.59;5088048;28;22055;-77
2023/04/15 04:15:50;;;;;;;32.25;18.17;;;6.50;99.90;;;6.57;100.00;99996.16;5087837;28;20028;-76
2023/04/15 04:18:16;;;;;;;39.17;20.70;;;6.50;99.90;;;6.43;100.00;99995.31;5082243;28;20510;-77
2023/04/15 04:20:41;;;;;;;39.17;18.33;;;6.50;99.90;;;6.43;100.00;99996.16;5085262;28;20142;-77
2023/04/15 04:23:07;;;;;;;39.08;21.52;;;6.50;99.90;;;6.30;100.00;99996.09;5074651;28;20576;-77
2023/04/15 04:25:33;;;;;;;36.95;19.75;;;6.50;99.90;;;6.36;100.00;99973.59;5081504;28;20511;-76
2023/04/15 04:27:58;;;;;;;44.05;22.95;;;6.40;99.90;;;6.29;100.00;99999.84;5089617;28;20043;-76
2023/04/15 04:30:24;;;;;;;43.45;21.20;;;6.40;99.90;;;6.37;100.00;99988.00;5085788;28;20037;-77
2023/04/15 04:32:50;;;;;;;34.80;16.48;;;6.40;99.90;;;6.26;100.00;99989.44;5081941;28;20051;-77
2023/04/15 04:35:16;;;;;;;39.17;18.08;;;6.40;99.90;;;6.37;100.00;99983.44;5086135;28;20097;-77
2023/04/15 04:37:42;;;;;;;43.10;21.27;;;6.40;99.90;;;6.36;100.00;99991.75;5080770;28;20044;-77
2023/04/15 04:40:08;;;;;;;51.40;25.77;;;6.40;99.90;;;6.30;100.00;99979.84;5082354;28;20028;-76
2023/04/15 04:42:34;;;;;;;36.78;18.05;;;6.30;99.90;;;6.25;100.00;99971.50;5083059;28;20227;-77
2023/04/15 04:45:00;;;;;;;50.47;24.60;;;6.40;99.90;;;6.46;100.00;99974.06;5083010;28;20036;-75
2023/04/15 04:47:25;;;;;;;45.53;21.88;;;6.40;99.90;;;6.43;100.00;99981.75;5060340;28;20033;-77
2023/04/15 04:49:51;;;;;;;44.67;20.65;;;6.40;99.90;;;6.39;100.00;99973.22;5085343;28;20402;-76
2023/04/15 04:52:17;;;;;;;51.20;24.60;;;6.40;99.90;;;6.29;100.00;99957.38;5080074;28;20036;-77
2023/04/15 04:54:42;;;;;;;43.78;21.45;;;6.40;99.90;;;6.58;100.00;99986.97;5080575;28;20435;-76
2023/04/15 04:57:08;;;;;;;46.83;23.45;;;6.40;99.90;;;6.37;100.00;99986.16;5072417;28;20040;-78
2023/04/15 04:59:34;;;;;;;42.22;21.48;;;6.40;99.90;;;6.32;100.00;99965.06;5083241;28;20036;-77
2023/04/15 05:01:59;;;;;;;42.92;20.92;;;6.40;99.90;;;6.50;100.00;99985.34;5079147;28;20040;-77
2023/04/15 05:04:25;;;;;;;41.33;20.52;;;6.40;99.90;;;6.39;100.00;99986.78;5081533;28;20032;-78
2023/04/15 05:06:51;;;;;;;48.42;23.73;;;6.40;99.90;;;6.46;100.00;99987.59;5075150;28;20530;-78
2023/04/15 05:09:17;;;;;;;48.95;25.00;;;6.40;99.90;;;6.33;100.00;99993.84;5065480;28;20528;-79
2023/04/15 05:11:42;;;;;;;43.42;20.63;;;6.40;99.90;;;6.31;100.00;99987.78;5081752;28;20044;-78
2023/04/15 05:14:08;;;;;;;47.72;22.55;;;6.40;99.90;;;6.51;100.00;99991.56;5079330;28;20043;-78
2023/04/15 05:16:34;;;;;;;47.00;22.23;;;6.40;99.90;;;6.43;100.00;99996.16;5084679;28;20040;-79
2023/04/15 05:18:59;;;;;;;36.08;19.10;;;6.40;99.90;;;6.39;100.00;99989.47;5078902;28;20552;-80
2023/04/15 05:21:26;;;;;;;46.45;21.98;;;6.40;99.90;;;6.44;100.00;99986.97;5086068;28;20039;-78
2023/04/15 05:23:52;;;;;;;42.22;20.15;;;6.40;99.90;;;6.36;100.00;99983.63;5086630;28;20156;-77
2023/04/15 05:26:18;;;;;;;41.00;20.42;;;6.40;99.90;;;6.33;100.00;99968.59;5080376;28;20057;-78
2023/04/15 05:28:43;;;;;;;47.83;22.20;;;6.40;99.90;;;6.32;100.00;99969.63;5063271;28;20150;-79
2023/04/15 05:31:09;;;;;;;45.00;20.90;;;6.40;99.90;;;6.44;100.00;99981.56;5075125;28;20025;-79
2023/04/15 05:33:35;;;;;;;40.33;20.35;;;6.40;99.90;;;6.40;100.00;99969.47;5059484;28;20591;-77
2023/04/15 05:36:01;;;;;;;46.63;21.30;;;6.40;99.90;;;6.41;100.00;99981.13;5073367;28;20089;-77
2023/04/15 05:38:27;;;;;;;36.50;16.02;;;6.40;99.90;;;6.37;100.00;99964.47;5047999;28;20032;-78
2023/04/15 05:40:52;;;;;;;41.17;20.65;;;6.40;99.90;;;6.38;100.00;99963.44;5083362;28;20423;-78
2023/04/15 05:43:18;;;;;;;43.53;21.13;;;6.40;99.90;;;6.44;100.00;99962.59;5076585;28;20064;-78
2023/04/15 05:45:44;;;;;;;38.15;17.55;;;6.40;99.90;;;6.39;100.00;99956.97;5062890;28;20042;-77
2023/04/15 05:48:09;;;;;;;43.63;20.92;;;6.40;99.90;;;6.34;100.00;99959.44;5081932;28;20351;-78
2023/04/15 05:50:35;;;;;;;44.22;20.60;;;6.40;99.90;;;6.29;100.00;99946.53;5085607;28;20044;-77
2023/04/15 05:53:01;;;;;;;42.17;20.17;;;6.40;99.90;;;6.38;100.00;99957.16;5075329;28;20090;-78
2023/04/15 05:55:26;;;;;;;39.92;18.10;;;6.40;99.90;;;6.42;100.00;99943.00;5048236;28;20034;-77
2023/04/15 05:57:52;;;;;;;41.47;19.85;;;6.50;99.90;;;6.59;100.00;99956.97;5074778;28;20146;-77
2023/04/15 06:00:18;;;;;;;37.50;16.25;;;6.50;99.90;;;6.55;100.00;99955.72;5083919;28;20047;-78
2023/04/15 06:02:44;;;;;;;38.80;18.48;;;6.50;99.90;;;6.58;100.00;99955.31;5080210;28;20101;-78
2023/04/15 06:05:10;;;;;;;40.03;17.42;;;6.50;99.90;;;6.56;100.00;99945.72;5085321;28;20040;-78
2023/04/15 06:07:37;;;;;;;41.38;18.17;;;6.60;99.90;;;6.67;100.00;99955.09;5080979;28;20040;-79
2023/04/15 06:10:04;;;;;;;37.35;16.98;;;6.60;99.90;;;6.57;100.00;99963.63;5078274;28;20501;-77
2023/04/15 06:12:30;;;;;;;25.07;11.23;;;6.60;99.90;;;6.59;100.00;99956.97;5086244;28;20123;-76
2023/04/15 06:14:56;;;;;;;40.55;17.77;;;6.60;99.90;;;6.58;100.00;99958.03;5085458;28;20391;-78
2023/04/15 06:17:21;;;;;;;34.67;16.27;;;6.60;99.90;;;6.51;100.00;99942.78;5080406;28;20035;-76
2023/04/15 06:19:49;;;;;;;44.85;19.05;;;6.60;99.90;;;6.79;100.00;99939.88;5070187;28;20087;-77
2023/04/15 06:22:15;;;;;;;39.03;16.50;;;6.70;99.90;;;6.64;100.00;99944.69;5040022;28;20064;-76
2023/04/15 06:24:41;;;;;;;40.17;17.02;;;6.70;99.90;;;6.70;100.00;99935.69;5076754;28;20276;-77
2023/04/15 06:27:07;;;;;;;35.08;16.10;;;6.70;99.90;;;6.78;100.00;99948.22;5078125;28;20530;-79
2023/04/15 06:29:32;;;;;;;31.88;16.20;;;6.70;99.90;;;6.81;100.00;99969.50;5069595;28;20040;-79
2023/04/15 06:31:58;;;;;;;28.52;14.00;;;6.70;99.90;;;6.81;100.00;99975.75;5069096;28;20037;-78
2023/04/15 06:34:24;;;;;;;26.05;13.52;;;6.70;99.90;;;6.62;100.00;99986.38;5083481;28;20360;-78
2023/04/15 06:36:50;;;;;;;29.40;14.77;;;6.70;99.90;;;6.83;100.00;99978.25;5039991;28;20047;-77
2023/04/15 06:39:15;;;;;;;33.75;14.30;;;6.70;99.90;;;6.78;100.00;99969.91;5038528;28;20033;-75
2023/04/15 06:41:41;;;;;;;25.13;11.95;;;6.70;99.90;;;6.82;100.00;99971.16;5075782;28;20036;-76
2023/04/15 06:44:07;;;;;;;29.67;14.38;;;6.70;99.90;;;6.80;100.00;99974.09;5077958;28;20395;-77
2023/04/15 06:46:33;;;;;;;26.05;14.68;;;6.70;99.90;;;6.70;100.00;99971.78;5079825;28;20223;-79
2023/04/15 06:48:59;;;;;;;22.55;11.77;;;6.70;99.90;;;6.83;100.00;99972.81;5071927;28;20352;-77
2023/04/15 06:51:24;;;;;;;25.90;12.85;;;6.70;99.90;;;6.78;100.00;99967.19;5082193;28;20457;-77
2023/04/15 06:53:50;;;;;;;22.80;12.15;;;6.70;99.90;;;6.68;100.00;99959.47;5067001;28;20061;-76
2023/04/15 06:56:16;;;;;;;22.88;12.55;;;6.70;99.90;;;6.57;100.00;99952.78;5085842;28;20036;-77
2023/04/15 06:58:42;;;;;;;21.95;11.88;;;6.70;99.90;;;6.39;100.00;99948.84;5067222;28;20424;-77
2023/04/15 07:01:07;;;;;;;22.45;11.02;;;6.70;99.90;;;6.81;100.00;99967.63;5088675;28;20033;-78
2023/04/15 07:03:34;;;;;;;25.08;13.15;;;6.70;99.90;;;6.71;100.00;99975.31;5088808;28;20060;-78
2023/04/15 07:06:00;;;;;;;24.17;12.90;;;6.80;99.90;;;6.89;100.00;99983.69;5078710;28;20039;-78
2023/04/15 07:08:26;;;;;;;21.80;11.65;;;6.80;99.90;;;6.73;100.00;99976.78;5081261;28;20403;-79
2023/04/15 07:10:52;;;;;;;21.08;12.60;;;6.80;99.90;;;6.89;100.00;99989.09;5070237;28;20050;-79
2023/04/15 07:13:18;;;;;;;25.88;12.88;;;6.80;99.90;;;7.36;100.00;99987.38;5083055;28;20036;-78
2023/04/15 07:15:44;;;;;;;22.15;11.20;;;6.80;99.90;;;7.61;100.00;99985.66;5083195;28;20388;-77
2023/04/15 07:18:10;;;;;;;19.33;11.32;;;6.90;99.90;;;7.12;100.00;100004.13;5089161;28;20032;-79
2023/04/15 07:20:35;;;;;;;19.15;10.43;;;6.90;99.90;;;7.04;100.00;100007.88;5062864;28;20043;-78
2023/04/15 07:23:02;;;;;;;23.50;11.90;;;6.90;99.90;;;7.24;100.00;100014.31;5081783;28;20037;-78
2023/04/15 07:25:28;;;;;;;18.83;9.63;;;6.90;99.90;;;7.08;100.00;100012.88;5065215;28;20113;-77
2023/04/15 07:27:53;;;;;;;20.10;10.55;;;6.90;99.90;;;7.07;100.00;100006.63;5083703;28;22140;-78
2023/04/15 07:30:19;;;;;;;20.75;10.13;;;6.90;99.90;;;7.05;100.00;100009.53;5078182;28;20044;-78
2023/04/15 07:32:45;;;;;;;22.63;11.52;;;6.90;99.90;;;7.09;100.00;100006.41;5088886;28;20524;-78
2023/04/15 07:35:11;;;;;;;22.35;11.02;;;7.00;99.90;;;7.10;100.00;100010.78;5087513;28;20043;-77
2023/04/15 07:37:36;;;;;;;20.67;10.95;;;7.00;99.90;;;6.97;100.00;100004.34;5084605;28;20066;-77
2023/04/15 07:40:03;;;;;;;19.42;11.10;;;7.00;99.90;;;7.22;100.00;100006.41;5085277;28;20078;-77
2023/04/15 07:42:29;;;;;;;18.55;9.88;;;7.00;99.90;;;7.12;100.00;100008.69;5074664;28;20101;-78
2023/04/15 07:44:56;;;;;;;18.55;10.13;;;7.10;99.90;;;7.21;100.00;100015.59;5082277;28;20467;-79
2023/04/15 07:47:21;;;;;;;16.27;9.63;;;7.10;99.90;;;7.10;100.00;100010.78;5077319;28;20028;-79
2023/04/15 07:49:47;;;;;;;17.92;9.60;;;7.10;99.90;;;7.18;100.00;100016.00;5085306;28;20101;-79
2023/04/15 07:52:13;;;;;;;17.88;9.65;;;7.10;99.90;;;7.04;100.00;100021.44;5086652;28;20048;-78
2023/04/15 07:54:38;;;;;;;14.35;8.18;;;7.10;99.90;;;7.11;100.00;100013.31;5081491;28;20105;-79
2023/04/15 07:57:04;;;;;;;16.23;9.13;;;7.20;99.90;;;7.04;100.00;100005.16;5083288;28;20033;-79
2023/04/15 07:59:32;;;;;;;11.88;6.25;;;7.20;99.90;;;7.24;100.00;100023.31;5082876;28;20112;-78
2023/04/15 08:01:58;;;;;;;16.63;8.93;;;7.20;99.90;;;7.09;100.00;100001.81;5088575;28;20035;-80
2023/04/15 08:04:24;;;;;;;15.13;8.68;;;7.20;99.90;;;7.11;100.00;100017.88;5087010;28;20109;-78
2023/04/15 08:06:51;;;;;;;14.93;8.23;;;7.20;99.90;;;7.10;100.00;100002.66;5083103;28;20040;-80
2023/04/15 08:09:16;;;;;;;14.80;8.10;;;7.20;99.90;;;7.13;100.00;100019.34;5083220;28;20545;-78
2023/04/15 08:11:42;;;;;;;18.60;8.20;;;7.20;99.90;;;6.98;100.00;100014.13;5085152;28;20033;-80
2023/04/15 08:14:08;;;;;;;14.70;7.97;;;7.20;99.90;;;7.01;100.00;100029.13;5076895;28;20472;-78
2023/04/15 08:16:34;;;;;;;13.80;8.00;;;7.20;99.90;;;7.01;100.00;100013.72;5051050;28;20046;-80
2023/04/15 08:19:00;;;;;;;14.45;7.75;;;7.20;99.90;;;6.95;100.00;100024.56;5081651;28;20086;-78
2023/04/15 08:21:26;;;;;;;12.55;6.93;;;7.20;99.90;;;6.87;100.00;100021.00;5070532;28;20048;-77
2023/04/15 08:23:53;;;;;;;11.38;5.97;;;7.20;99.90;;;6.88;100.00;100013.69;5079396;28;20044;-78
2023/04/15 08:26:20;;;;;;;12.10;6.90;;;7.20;99.90;;;6.88;100.00;100008.28;5082240;28;20044;-77
2023/04/15 08:28:46;;;;;;;12.88;7.22;;;7.20;99.90;;;6.94;100.00;100004.75;5086684;28;20032;-78
2023/04/15 08:31:13;;;;;;;12.27;7.20;;;7.20;99.90;;;7.29;100.00;100011.81;5085788;28;20042;-77
2023/04/15 08:33:39;;;;;;;12.05;6.63;;;7.30;99.90;;;7.26;100.00;100009.50;5071352;28;20028;-78
2023/04/15 08:36:06;;;;;;;11.07;6.57;;;7.30;99.90;;;7.44;100.00;100011.59;5046400;28;20103;-78
2023/04/15 08:38:32;;;;;;;11.65;7.05;;;7.30;99.90;;;7.43;100.00;100023.50;5087731;28;20120;-78
2023/04/15 08:41:06;;;;;;;11.90;6.60;;;7.30;99.90;;;7.31;100.00;100023.31;5087384;28;20181;-77
2023/04/15 08:43:47;;;;;;;10.50;6.18;;;7.30;99.90;;;7.36;100.00;100036.22;5087355;28;20047;-78
2023/04/15 08:46:15;;;;;;;11.02;5.82;;;7.40;99.90;;;7.22;100.00;100011.84;5087620;28;20072;-77
2023/04/15 08:48:43;;;;;;;11.57;6.32;;;7.40;99.90;;;7.42;100.00;100014.50;5086151;28;20062;-78
2023/04/15 08:51:09;;;;;;;12.93;7.03;;;7.40;99.90;;;7.39;100.00;100014.09;5078488;28;20055;-78
2023/04/15 08:53:36;;;;;;;11.90;7.03;;;7.50;99.90;;;7.41;100.00;100028.28;5076975;28;20039;-78
2023/04/15 08:56:07;;;;;;;11.85;7.18;;;7.50;99.90;;;7.43;100.00;100018.06;5083337;28;20446;-78
2023/04/15 08:58:35;;;;;;;8.75;5.40;;;7.50;99.90;;;7.41;100.00;100012.00;5082218;28;20533;-78
2023/04/15 09:01:00;;;;;;;11.70;6.18;;;7.60;99.90;;;7.45;100.00;100003.22;5077764;28;20028;-79
2023/04/15 09:03:27;;;;;;;11.65;6.70;;;7.60;99.90;;;7.62;100.00;100019.88;5087420;28;20536;-78
2023/04/15 09:05:53;;;;;;;12.35;6.53;;;7.70;99.90;;;7.65;100.00;100012.38;5084044;28;20097;-78
2023/04/15 09:08:19;;;;;;;11.10;6.80;;;7.70;99.90;;;7.58;100.00;100034.94;5078599;28;20483;-79
2023/04/15 09:10:45;;;;;;;11.63;6.82;;;7.80;99.90;;;7.71;100.00;100025.94;5053920;28;20043;-79
2023/04/15 09:13:11;;;;;;;11.70;6.63;;;7.80;99.90;;;7.73;100.00;100031.16;5081075;28;20118;-79
2023/04/15 09:15:40;;;;;;;11.65;6.45;;;7.80;99.90;;;7.64;100.00;100044.13;5080399;28;20109;-78
2023/04/15 09:18:06;;;;;;;14.13;8.18;;;7.90;99.90;;;7.86;100.00;100043.88;5056149;28;20055;-79
2023/04/15 09:20:40;;;;;;;14.80;8.20;;;7.80;99.90;;;7.88;100.00;100058.88;5065338;28;20028;-79
2023/04/15 09:23:14;;;;;;;14.63;7.80;;;7.90;99.90;;;7.81;100.00;100060.78;5048261;28;20522;-78
2023/04/15 09:25:41;;;;;;;11.32;6.70;;;7.90;99.90;;;7.85;100.00;100072.91;5083781;28;20545;-79
2023/04/15 09:28:07;;;;;;;12.43;7.35;;;7.90;99.90;;;7.96;100.00;100073.31;5080643;28;20154;-79
2023/04/15 09:30:33;;;;;;;12.57;6.65;;;7.90;99.90;;;7.89;100.00;100065.16;5087010;28;20403;-80
2023/04/15 09:33:06;;;;;;;13.75;8.15;;;7.90;99.90;;;7.83;100.00;100080.41;5067707;28;20450;-79
2023/04/15 09:35:35;;;;;;;10.25;5.60;;;7.90;99.90;;;7.76;100.00;100087.75;5077786;28;20037;-77
2023/04/15 09:38:06;;;;;;;15.38;8.07;;;7.90;99.90;;;7.79;100.00;100084.63;5086530;28;20047;-78
2023/04/15 09:40:40;;;;;;;17.30;8.43;;;7.90;99.90;;;7.85;100.00;100089.19;5071454;28;20064;-79
2023/04/15 09:43:08;;;;;;;15.43;8.52;;;7.90;99.90;;;7.95;100.00;100087.91;5052731;28;20043;-79
2023/04/15 09:45:35;;;;;;;15.93;8.45;;;7.90;99.90;;;8.00;100.00;100086.22;5082467;28;20036;-80
2023/04/15 09:48:21;;;;;;;15.52;9.05;;;7.90;99.90;;;7.99;100.00;100067.44;5078823;28;20055;-82
2023/04/15 09:50:52;;;;;;;15.05;7.75;;;8.00;99.90;;;7.98;100.00;100082.88;5086175;28;20043;-79
2023/04/15 09:53:23;;;;;;;14.82;7.55;;;8.10;99.90;;;8.00;100.00;100082.69;5084850;28;20036;-78
2023/04/15 09:55:56;;;;;;;16.70;8.95;;;8.10;99.90;;;7.99;100.00;100072.88;5071153;28;20480;-81
2023/04/15 09:58:25;;;;;;;16.85;9.18;;;8.10;99.90;;;7.99;100.00;100045.72;5079248;28;20458;-79
2023/04/15 10:00:53;;;;;;;16.80;8.57;;;8.10;99.90;;;8.04;100.00;100073.88;5074359;28;20033;-79
2023/04/15 10:03:25;;;;;;;20.77;10.43;;;8.20;99.90;;;8.32;100.00;100080.88;5084963;28;20032;-79
2023/04/15 10:05:54;;;;;;;17.48;9.77;;;8.20;99.90;;;8.25;100.00;100080.06;5081090;28;20051;-80
2023/04/15 10:08:27;;;;;;;23.05;11.18;;;8.30;99.90;;;8.26;100.00;100094.50;5076139;28;20032;-79
2023/04/15 10:10:55;;;;;;;21.05;11.68;;;8.30;99.90;;;8.24;100.00;100104.75;5082334;28;20080;-79